createdAt,value
2022-12-18T00:02:00.917Z,-6.61
2022-12-18T00:04:28.964Z,-6.69
2022-12-18T00:06:56.408Z,-7.01
2022-12-18T00:09:24.696Z,-6.92
2022-12-18T00:11:52.253Z,-6.81
2022-12-18T00:14:19.587Z,-7.16
2022-12-18T00:16:48.710Z,-7.10
2022-12-18T00:19:16.397Z,-7.21
2022-12-18T00:21:44.343Z,-7.45
2022-12-18T00:24:12.555Z,-7.43
2022-12-18T00:26:40.366Z,-7.53
2022-12-18T00:29:08.935Z,-7.44
2022-12-18T00:31:36.370Z,-7.33
2022-12-18T00:34:05.384Z,-7.23
2022-12-18T00:36:34.205Z,-7.18
2022-12-18T00:39:02.310Z,-7.17
2022-12-18T00:41:47.585Z,-7.28
2022-12-18T00:44:16.010Z,-7.09
2022-12-18T00:46:43.613Z,-7.12
2022-12-18T00:49:12.309Z,-6.96
2022-12-18T00:51:39.673Z,-7.05
2022-12-18T00:54:07.475Z,-7.12
2022-12-18T00:56:34.811Z,-7.30
2022-12-18T00:59:02.166Z,-7.27
2022-12-18T01:01:29.661Z,-7.30
2022-12-18T01:03:57.818Z,-7.16
2022-12-18T01:06:26.519Z,-7.02
2022-12-18T01:08:53.865Z,-7.15
2022-12-18T01:11:21.985Z,-7.19
2022-12-18T01:13:49.568Z,-7.54
2022-12-18T01:16:18.216Z,-7.53
2022-12-18T01:18:45.942Z,-7.45
2022-12-18T01:21:14.518Z,-7.30
2022-12-18T01:23:46.968Z,-7.55
2022-12-18T01:26:16.190Z,-7.59
2022-12-18T01:28:44.602Z,-7.67
2022-12-18T01:31:16.365Z,-7.61
2022-12-18T01:33:44.040Z,-7.55
2022-12-18T01:36:16.838Z,-7.56
2022-12-18T01:38:45.505Z,-7.46
2022-12-18T01:41:12.825Z,-7.52
2022-12-18T01:43:47.579Z,-7.51
2022-12-18T01:46:15.033Z,-7.54
2022-12-18T01:48:42.735Z,-7.58
2022-12-18T01:51:11.563Z,-7.52
2022-12-18T01:53:40.475Z,-7.53
2022-12-18T01:56:10.303Z,-7.74
2022-12-18T01:58:42.253Z,-7.80
2022-12-18T02:01:10.079Z,-7.61
2022-12-18T02:03:38.529Z,-7.67
2022-12-18T02:06:11.705Z,-7.77
2022-12-18T02:08:42.052Z,-7.72
2022-12-18T02:11:13.170Z,-7.81
2022-12-18T02:13:44.373Z,-7.77
2022-12-18T02:16:15.774Z,-7.75
2022-12-18T02:18:45.431Z,-7.74
2022-12-18T02:21:20.265Z,-7.95
2022-12-18T02:23:51.575Z,-7.99
2022-12-18T02:26:22.602Z,-7.92
2022-12-18T02:28:53.402Z,-7.90
2022-12-18T02:31:23.393Z,-7.78
2022-12-18T02:33:51.410Z,-7.60
2022-12-18T02:36:19.551Z,-7.50
2022-12-18T02:38:47.960Z,-7.58
2022-12-18T02:41:16.434Z,-7.52
2022-12-18T02:43:49.355Z,-7.42
2022-12-18T02:46:28.449Z,-7.29
2022-12-18T02:48:58.559Z,-7.29
2022-12-18T02:51:30.986Z,-7.31
2022-12-18T02:54:02.925Z,-7.29
2022-12-18T02:56:35.875Z,-7.32
2022-12-18T02:59:06.518Z,-7.29
2022-12-18T03:01:35.963Z,-7.27
2022-12-18T03:04:06.107Z,-7.42
2022-12-18T03:06:35.473Z,-7.41
2022-12-18T03:09:07.911Z,-7.55
2022-12-18T03:11:53.591Z,-7.61
2022-12-18T03:14:22.961Z,-7.51
2022-12-18T03:16:51.928Z,-7.50
2022-12-18T03:19:23.085Z,-7.40
2022-12-18T03:21:53.427Z,-7.45
2022-12-18T03:24:22.174Z,-7.40
2022-12-18T03:26:52.671Z,-7.41
2022-12-18T03:29:22.095Z,-7.35
2022-12-18T03:31:53.266Z,-7.39
2022-12-18T03:34:23.886Z,-7.50
2022-12-18T03:36:51.283Z,-7.49
2022-12-18T03:39:18.669Z,-7.60
2022-12-18T03:41:48.075Z,-7.61
2022-12-18T03:44:17.129Z,-7.48
2022-12-18T03:46:48.639Z,-7.63
2022-12-18T03:49:21.327Z,-7.70
2022-12-18T03:51:51.322Z,-7.62
2022-12-18T03:54:19.873Z,-7.73
2022-12-18T03:56:48.793Z,-7.77
2022-12-18T03:59:17.192Z,-7.91
2022-12-18T04:01:47.242Z,-8.11
2022-12-18T04:04:15.344Z,-7.97
2022-12-18T04:06:45.591Z,-8.04
2022-12-18T04:09:13.054Z,-7.99
2022-12-18T04:11:41.570Z,-8.05
2022-12-18T04:14:11.852Z,-8.22
2022-12-18T04:16:41.876Z,-8.31
2022-12-18T04:19:09.234Z,-8.24
2022-12-18T04:21:36.609Z,-8.35
2022-12-18T04:24:05.852Z,-8.25
2022-12-18T04:26:33.195Z,-8.12
2022-12-18T04:29:00.527Z,-8.28
2022-12-18T04:31:27.931Z,-8.27
2022-12-18T04:33:55.307Z,-8.32
2022-12-18T04:36:22.724Z,-8.35
2022-12-18T04:38:50.051Z,-8.40
2022-12-18T04:41:18.722Z,-8.47
2022-12-18T04:43:46.070Z,-8.55
2022-12-18T04:46:13.485Z,-8.70
2022-12-18T04:48:40.835Z,-8.60
2022-12-18T04:51:08.556Z,-8.54
2022-12-18T04:53:35.898Z,-8.52
2022-12-18T04:56:07.390Z,-8.55
2022-12-18T04:58:36.183Z,-8.57
2022-12-18T05:01:04.197Z,-8.62
2022-12-18T05:03:31.915Z,-8.66
2022-12-18T05:05:59.312Z,-8.66
2022-12-18T05:08:26.708Z,-8.97
2022-12-18T05:10:59.991Z,-9.12
2022-12-18T05:13:27.477Z,-9.23
2022-12-18T05:15:56.360Z,-9.21
2022-12-18T05:18:24.375Z,-8.98
2022-12-18T05:20:51.780Z,-9.05
2022-12-18T05:23:19.655Z,-9.05
2022-12-18T05:25:48.579Z,-9.06
2022-12-18T05:28:15.921Z,-9.17
2022-12-18T05:30:43.243Z,-9.09
2022-12-18T05:33:11.927Z,-9.01
2022-12-18T05:35:39.252Z,-8.93
2022-12-18T05:38:06.595Z,-8.94
2022-12-18T05:40:33.976Z,-8.77
2022-12-18T05:43:01.293Z,-9.06
2022-12-18T05:45:28.708Z,-9.21
2022-12-18T05:47:56.024Z,-9.16
2022-12-18T05:50:25.743Z,-8.98
2022-12-18T05:52:53.087Z,-9.16
2022-12-18T05:55:20.394Z,-9.26
2022-12-18T05:57:47.721Z,-9.26
2022-12-18T06:00:15.712Z,-9.36
2022-12-18T06:02:43.179Z,-9.46
2022-12-18T06:05:11.788Z,-9.47
2022-12-18T06:07:40.488Z,-9.55
2022-12-18T06:10:08.094Z,-9.68
2022-12-18T06:12:35.432Z,-9.68
2022-12-18T06:15:02.804Z,-9.61
2022-12-18T06:17:30.853Z,-9.64
2022-12-18T06:19:58.154Z,-9.58
2022-12-18T06:22:25.950Z,-9.56
2022-12-18T06:24:54.640Z,-9.43
2022-12-18T06:27:21.981Z,-9.42
2022-12-18T06:29:49.313Z,-9.50
2022-12-18T06:32:16.879Z,-9.59
2022-12-18T06:34:44.241Z,-9.55
2022-12-18T06:37:11.710Z,-9.87
2022-12-18T06:39:39.017Z,-9.94
2022-12-18T06:42:07.825Z,-9.95
2022-12-18T06:44:35.133Z,-9.81
2022-12-18T06:47:02.495Z,-9.70
2022-12-18T06:49:30.748Z,-9.58
2022-12-18T06:51:58.137Z,-9.71
2022-12-18T06:54:25.837Z,-9.74
2022-12-18T06:56:53.143Z,-9.61
2022-12-18T06:59:21.834Z,-9.55
2022-12-18T07:01:49.308Z,-9.49
2022-12-18T07:04:16.754Z,-9.69
2022-12-18T07:06:44.109Z,-9.77
2022-12-18T07:09:11.460Z,-9.60
2022-12-18T07:11:38.811Z,-9.66
2022-12-18T07:14:06.359Z,-9.76
2022-12-18T07:16:35.100Z,-9.68
2022-12-18T07:19:02.445Z,-9.81
2022-12-18T07:21:29.778Z,-9.70
2022-12-18T07:23:57.462Z,-9.59
2022-12-18T07:26:24.811Z,-9.56
2022-12-18T07:28:52.485Z,-9.70
2022-12-18T07:31:21.551Z,-9.78
2022-12-18T07:33:51.198Z,-9.71
2022-12-18T07:36:18.922Z,-9.66
2022-12-18T07:38:48.314Z,-9.78
2022-12-18T07:41:15.916Z,-9.78
2022-12-18T07:43:44.174Z,-9.83
2022-12-18T07:46:14.550Z,-9.54
2022-12-18T07:48:42.052Z,-9.39
2022-12-18T07:51:13.247Z,-9.41
2022-12-18T07:53:41.260Z,-9.30
2022-12-18T07:56:27.860Z,-9.06
2022-12-18T07:58:55.799Z,-9.06
2022-12-18T08:01:23.365Z,-9.17
2022-12-18T08:03:52.530Z,-9.15
2022-12-18T08:06:23.241Z,-8.92
2022-12-18T08:08:52.783Z,-8.87
2022-12-18T08:11:20.099Z,-8.75
2022-12-18T08:13:48.946Z,-8.59
2022-12-18T08:16:16.967Z,-8.55
2022-12-18T08:18:44.835Z,-8.45
2022-12-18T08:21:12.616Z,-8.41
2022-12-18T08:23:43.266Z,-8.22
2022-12-18T08:26:11.325Z,-8.13
2022-12-18T08:28:38.726Z,-7.90
2022-12-18T08:31:06.513Z,-7.52
2022-12-18T08:33:34.299Z,-7.56
2022-12-18T08:36:02.241Z,-7.49
2022-12-18T08:38:29.977Z,-7.54
2022-12-18T08:41:02.154Z,-7.42
2022-12-18T08:43:47.158Z,-7.22
2022-12-18T08:46:14.748Z,-7.08
2022-12-18T08:48:42.157Z,-6.96
2022-12-18T08:51:10.475Z,-6.87
2022-12-18T08:53:38.367Z,-6.73
2022-12-18T08:56:07.899Z,-6.61
2022-12-18T08:58:35.410Z,-6.41
2022-12-18T09:01:03.457Z,-6.19
2022-12-18T09:03:31.217Z,-5.90
2022-12-18T09:05:58.787Z,-5.84
2022-12-18T09:08:26.226Z,-5.72
2022-12-18T09:10:53.763Z,-5.58
2022-12-18T09:13:22.982Z,-5.35
2022-12-18T09:15:51.538Z,-5.29
2022-12-18T09:18:19.909Z,-5.16
2022-12-18T09:20:47.238Z,-5.08
2022-12-18T09:23:14.948Z,-4.80
2022-12-18T09:25:42.344Z,-4.64
2022-12-18T09:28:12.914Z,-4.52
2022-12-18T09:30:44.273Z,-4.32
2022-12-18T09:33:11.628Z,-4.18
2022-12-18T09:35:40.109Z,-4.04
2022-12-18T09:38:08.105Z,-3.88
2022-12-18T09:40:36.810Z,-3.71
2022-12-18T09:43:07.409Z,-3.50
2022-12-18T09:45:40.984Z,-3.37
2022-12-18T09:48:12.519Z,-3.23
2022-12-18T09:50:41.715Z,-3.12
2022-12-18T09:53:14.003Z,-2.98
2022-12-18T09:55:43.064Z,-2.85
2022-12-18T09:58:17.458Z,-2.88
2022-12-18T10:00:45.254Z,-2.80
2022-12-18T10:03:16.147Z,-2.74
2022-12-18T10:05:48.791Z,-2.60
2022-12-18T10:08:21.356Z,-2.59
2022-12-18T10:10:50.479Z,-2.47
2022-12-18T10:13:23.723Z,-2.51
2022-12-18T10:15:59.660Z,-2.45
2022-12-18T10:18:34.264Z,-2.40
2022-12-18T10:21:05.844Z,-2.52
2022-12-18T10:23:36.592Z,-2.36
2022-12-18T10:26:05.354Z,-2.41
2022-12-18T10:28:34.400Z,-2.24
2022-12-18T10:31:01.777Z,-2.29
2022-12-18T10:33:33.083Z,-2.25
2022-12-18T10:36:01.036Z,-2.24
2022-12-18T10:38:29.958Z,-2.25
2022-12-18T10:40:58.279Z,-2.08
2022-12-18T10:43:26.937Z,-1.93
2022-12-18T10:46:02.191Z,-1.86
2022-12-18T10:48:32.112Z,-1.81
2022-12-18T10:51:10.876Z,-1.93
2022-12-18T10:53:42.067Z,-1.92
2022-12-18T10:56:09.412Z,-1.92
2022-12-18T10:58:37.722Z,-1.90
2022-12-18T11:01:10.377Z,-1.81
2022-12-18T11:03:40.204Z,-2.00
2022-12-18T11:06:09.099Z,-1.81
2022-12-18T11:08:36.510Z,-1.85
2022-12-18T11:11:04.028Z,-1.85
2022-12-18T11:13:32.678Z,-1.83
2022-12-18T11:16:00.922Z,-1.66
2022-12-18T11:18:29.727Z,-1.73
2022-12-18T11:20:59.839Z,-1.83
2022-12-18T11:23:27.765Z,-1.73
2022-12-18T11:25:56.940Z,-1.74
2022-12-18T11:28:28.745Z,-1.81
2022-12-18T11:31:11.497Z,-1.76
2022-12-18T11:33:53.164Z,-1.58
2022-12-18T11:36:31.474Z,-1.50
2022-12-18T11:39:00.928Z,-1.38
2022-12-18T11:41:45.802Z,-1.34
2022-12-18T11:44:16.621Z,-1.42
2022-12-18T11:46:49.455Z,-1.54
2022-12-18T11:49:21.984Z,-1.60
2022-12-18T11:51:53.500Z,-1.76
2022-12-18T11:54:20.823Z,-1.71
2022-12-18T11:56:51.273Z,-1.71
2022-12-18T11:59:26.565Z,-1.69
2022-12-18T12:01:57.642Z,-1.70
2022-12-18T12:04:37.936Z,-1.71
2022-12-18T12:07:14.821Z,-1.89
2022-12-18T12:09:48.196Z,-1.89
2022-12-18T12:12:26.082Z,-1.77
2022-12-18T12:14:57.086Z,-1.83
2022-12-18T12:17:30.429Z,-1.82
2022-12-18T12:20:02.494Z,-1.87
2022-12-18T12:22:35.468Z,-1.81
2022-12-18T12:25:20.115Z,-1.97
2022-12-18T12:27:50.837Z,-2.01
2022-12-18T12:30:20.880Z,-2.11
2022-12-18T12:32:55.788Z,-1.95
2022-12-18T12:35:30.294Z,-1.90
2022-12-18T12:38:05.420Z,-1.97
2022-12-18T12:40:56.984Z,-1.97
2022-12-18T12:43:25.992Z,-1.86
2022-12-18T12:45:55.675Z,-1.93
2022-12-18T12:48:29.513Z,-1.84
2022-12-18T12:50:57.305Z,-1.97
2022-12-18T12:53:29.374Z,-2.00
2022-12-18T12:55:57.824Z,-2.08
2022-12-18T12:58:29.182Z,-2.17
2022-12-18T13:00:59.527Z,-2.22
2022-12-18T13:03:34.408Z,-2.27
2022-12-18T13:06:04.629Z,-2.26
2022-12-18T13:08:52.700Z,-2.35
2022-12-18T13:11:49.360Z,-2.43
2022-12-18T13:14:22.991Z,-2.55
2022-12-18T13:16:51.305Z,-2.60
2022-12-18T13:19:24.500Z,-2.56
2022-12-18T13:21:55.233Z,-2.65
2022-12-18T13:24:26.810Z,-2.70
2022-12-18T13:26:54.515Z,-2.73
2022-12-18T13:29:40.638Z,-2.77
2022-12-18T13:32:20.836Z,-2.79
2022-12-18T13:34:50.151Z,-2.90
2022-12-18T13:37:36.178Z,-3.00
2022-12-18T13:40:28.120Z,-2.93
2022-12-18T13:43:14.808Z,-3.02
2022-12-18T13:45:49.807Z,-2.97
2022-12-18T13:48:25.117Z,-2.96
2022-12-18T13:51:04.322Z,-2.98
2022-12-18T13:53:33.871Z,-2.96
2022-12-18T13:56:03.991Z,-2.92
2022-12-18T13:58:31.446Z,-2.96
2022-12-18T14:01:00.108Z,-3.04
2022-12-18T14:03:29.192Z,-3.04
2022-12-18T14:05:59.759Z,-3.08
2022-12-18T14:08:29.358Z,-3.06
2022-12-18T14:10:57.121Z,-3.14
2022-12-18T14:13:28.929Z,-3.18
2022-12-18T14:15:57.490Z,-3.22
2022-12-18T14:18:27.528Z,-3.30
2022-12-18T14:20:56.790Z,-3.43
2022-12-18T14:23:31.189Z,-3.37
2022-12-18T14:26:02.228Z,-3.47
2022-12-18T14:28:34.485Z,-3.42
2022-12-18T14:31:01.897Z,-3.53
2022-12-18T14:33:29.472Z,-3.52
2022-12-18T14:35:59.409Z,-3.56
2022-12-18T14:38:29.612Z,-3.59
2022-12-18T14:40:58.936Z,-3.60
2022-12-18T14:43:26.965Z,-3.65
2022-12-18T14:45:56.008Z,-3.70
2022-12-18T14:48:25.842Z,-3.71
2022-12-18T14:50:57.554Z,-3.81
2022-12-18T14:53:26.723Z,-3.72
2022-12-18T14:55:54.166Z,-3.78
2022-12-18T14:58:21.560Z,-3.79
2022-12-18T15:00:48.935Z,-3.79
2022-12-18T15:03:20.146Z,-3.87
2022-12-18T15:05:47.593Z,-3.90
2022-12-18T15:08:32.458Z,-3.95
2022-12-18T15:11:00.309Z,-4.00
2022-12-18T15:13:28.805Z,-4.03
2022-12-18T15:15:57.179Z,-4.05
2022-12-18T15:18:31.979Z,-4.11
2022-12-18T15:21:01.009Z,-4.07
2022-12-18T15:23:30.029Z,-4.11
2022-12-18T15:25:58.444Z,-4.06
2022-12-18T15:28:27.392Z,-4.17
2022-12-18T15:31:01.854Z,-4.12
2022-12-18T15:33:32.487Z,-4.14
2022-12-18T15:36:00.287Z,-4.18
2022-12-18T15:38:27.731Z,-4.24
2022-12-18T15:40:55.568Z,-4.20
2022-12-18T15:43:34.884Z,-4.25
2022-12-18T15:46:02.806Z,-4.20
2022-12-18T15:48:31.608Z,-4.17
2022-12-18T15:50:59.597Z,-4.23
2022-12-18T15:53:29.606Z,-4.17
2022-12-18T15:56:14.846Z,-4.23
2022-12-18T15:58:42.164Z,-4.23
2022-12-18T16:01:10.631Z,-4.23
2022-12-18T16:03:39.858Z,-4.22
2022-12-18T16:06:07.852Z,-4.25
2022-12-18T16:08:35.979Z,-4.23
2022-12-18T16:11:03.506Z,-4.26
2022-12-18T16:13:31.032Z,-4.26
2022-12-18T16:15:58.757Z,-4.17
2022-12-18T16:18:26.447Z,-4.18
2022-12-18T16:20:55.135Z,-4.16
2022-12-18T16:23:22.530Z,-4.15
2022-12-18T16:25:49.860Z,-4.17
2022-12-18T16:28:17.190Z,-4.21
2022-12-18T16:30:45.713Z,-4.20
2022-12-18T16:33:13.144Z,-4.22
2022-12-18T16:35:40.495Z,-4.21
2022-12-18T16:38:09.167Z,-4.25
2022-12-18T16:40:57.484Z,-4.17
2022-12-18T16:43:25.127Z,-4.16
2022-12-18T16:45:52.474Z,-4.22
2022-12-18T16:48:19.786Z,-4.18
2022-12-18T16:50:47.156Z,-4.21
2022-12-18T16:53:15.905Z,-4.17
2022-12-18T16:55:43.219Z,-4.20
2022-12-18T16:58:10.562Z,-4.14
2022-12-18T17:00:39.448Z,-4.15
2022-12-18T17:03:07.016Z,-4.14
2022-12-18T17:05:35.174Z,-4.11
2022-12-18T17:08:02.534Z,-4.18
2022-12-18T17:10:31.343Z,-4.18
2022-12-18T17:12:59.955Z,-4.11
2022-12-18T17:15:27.349Z,-4.19
2022-12-18T17:17:54.674Z,-4.10
2022-12-18T17:20:23.381Z,-4.15
2022-12-18T17:22:50.750Z,-4.17
2022-12-18T17:25:18.227Z,-4.13
2022-12-18T17:27:46.874Z,-4.10
2022-12-18T17:30:14.580Z,-4.04
2022-12-18T17:32:41.922Z,-3.99
2022-12-18T17:35:09.610Z,-4.02
2022-12-18T17:37:37.137Z,-3.99
2022-12-18T17:40:04.801Z,-4.02
2022-12-18T17:42:32.331Z,-4.02
2022-12-18T17:45:01.010Z,-4.03
2022-12-18T17:47:28.405Z,-4.05
2022-12-18T17:49:55.812Z,-3.99
2022-12-18T17:52:24.579Z,-3.96
2022-12-18T17:54:52.829Z,-3.97
2022-12-18T17:57:20.171Z,-3.92
2022-12-18T17:59:47.817Z,-3.89
2022-12-18T18:02:16.603Z,-3.91
2022-12-18T18:04:44.928Z,-3.90
2022-12-18T18:07:12.258Z,-3.90
2022-12-18T18:09:39.627Z,-3.86
2022-12-18T18:12:24.729Z,-3.81
2022-12-18T18:14:52.208Z,-3.76
2022-12-18T18:17:21.301Z,-3.76
2022-12-18T18:19:49.631Z,-3.71
2022-12-18T18:22:17.241Z,-3.71
2022-12-18T18:24:46.684Z,-3.71
2022-12-18T18:27:14.878Z,-3.69
2022-12-18T18:29:42.471Z,-3.64
2022-12-18T18:32:09.814Z,-3.62
2022-12-18T18:34:41.414Z,-3.63
2022-12-18T18:37:08.747Z,-3.61
2022-12-18T18:39:36.587Z,-3.65
2022-12-18T18:42:04.020Z,-3.54
2022-12-18T18:44:31.567Z,-3.61
2022-12-18T18:46:59.743Z,-3.58
2022-12-18T18:49:29.843Z,-3.56
2022-12-18T18:51:59.054Z,-3.55
2022-12-18T18:54:26.795Z,-3.52
2022-12-18T18:59:41.460Z,-3.53
2022-12-18T19:02:10.270Z,-3.58
2022-12-18T19:04:46.375Z,-3.57
2022-12-18T19:07:20.367Z,-3.55
2022-12-18T19:09:59.598Z,-3.53
2022-12-18T19:12:49.446Z,-3.55
2022-12-18T19:15:16.770Z,-3.59
2022-12-18T19:17:46.681Z,-3.54
2022-12-18T19:20:15.081Z,-3.54
2022-12-18T19:22:44.799Z,-3.60
2022-12-18T19:25:19.505Z,-3.63
2022-12-18T19:27:47.159Z,-3.59
2022-12-18T19:30:14.589Z,-3.55
2022-12-18T19:32:42.101Z,-3.63
2022-12-18T19:35:10.275Z,-3.51
2022-12-18T19:37:39.014Z,-3.53
2022-12-18T19:40:12.283Z,-3.49
2022-12-18T19:42:40.067Z,-3.48
2022-12-18T19:45:07.944Z,-3.47
2022-12-18T19:47:35.412Z,-3.42
2022-12-18T19:50:02.893Z,-3.45
2022-12-18T19:52:30.476Z,-3.39
2022-12-18T19:54:57.825Z,-3.44
2022-12-18T19:57:26.490Z,-3.39
2022-12-18T19:59:53.885Z,-3.42
2022-12-18T20:02:21.558Z,-3.38
2022-12-18T20:04:49.679Z,-3.39
2022-12-18T20:07:16.986Z,-3.31
2022-12-18T20:09:44.842Z,-3.44
2022-12-18T20:12:13.058Z,-3.46
2022-12-18T20:14:41.921Z,-3.42
2022-12-18T20:17:09.404Z,-3.39
2022-12-18T20:19:37.033Z,-3.44
2022-12-18T20:22:04.421Z,-3.45
2022-12-18T20:24:31.796Z,-3.36
2022-12-18T20:26:59.144Z,-3.38
2022-12-18T20:29:26.495Z,-3.39
2022-12-18T20:31:55.204Z,-3.29
2022-12-18T20:34:22.587Z,-3.25
2022-12-18T20:36:50.140Z,-3.31
2022-12-18T20:39:18.734Z,-3.36
2022-12-18T20:41:46.552Z,-3.28
2022-12-18T20:44:22.500Z,-3.26
2022-12-18T20:46:52.211Z,-3.23
2022-12-18T20:49:20.888Z,-3.16
2022-12-18T20:51:50.434Z,-3.17
2022-12-18T20:54:17.903Z,-3.19
2022-12-18T20:56:45.251Z,-3.21
2022-12-18T20:59:12.873Z,-3.17
2022-12-18T21:01:41.596Z,-3.11
2022-12-18T21:04:15.351Z,-3.09
2022-12-18T21:06:51.322Z,-3.05
2022-12-18T21:09:20.325Z,-3.06
2022-12-18T21:12:05.250Z,-3.08
2022-12-18T21:14:32.575Z,-3.00
2022-12-18T21:17:01.928Z,-3.07
2022-12-18T21:19:29.987Z,-3.06
2022-12-18T21:21:58.911Z,-3.08
2022-12-18T21:24:26.581Z,-3.04
2022-12-18T21:26:56.167Z,-3.06
2022-12-18T21:29:24.890Z,-3.02
2022-12-18T21:31:52.460Z,-3.00
2022-12-18T21:34:21.186Z,-3.05
2022-12-18T21:36:48.983Z,-3.16
2022-12-18T21:39:18.178Z,-3.14
2022-12-18T21:42:04.871Z,-3.09
2022-12-18T21:44:37.310Z,-3.10
2022-12-18T22:01:41.500Z,-3.12
2022-12-18T22:04:08.956Z,-3.13
2022-12-18T22:06:36.405Z,-3.15
2022-12-18T22:09:04.183Z,-3.15
2022-12-18T22:11:31.847Z,-3.16
2022-12-18T22:13:59.500Z,-3.08
2022-12-18T22:16:26.898Z,-3.17
2022-12-18T22:18:55.853Z,-3.10
2022-12-18T22:21:29.007Z,-3.16
2022-12-18T22:23:57.521Z,-3.11
2022-12-18T22:26:25.758Z,-3.20
2022-12-18T22:29:10.763Z,-3.12
2022-12-18T22:31:38.319Z,-3.17
2022-12-18T22:34:07.291Z,-3.20
2022-12-18T22:36:38.310Z,-3.16
2022-12-18T22:39:07.525Z,-3.18
2022-12-18T22:41:35.579Z,-3.20
2022-12-18T22:44:02.932Z,-3.25
2022-12-18T22:46:31.743Z,-3.24
2022-12-18T22:48:59.239Z,-3.23
2022-12-18T22:51:27.891Z,-3.22
2022-12-18T22:53:55.323Z,-3.15
2022-12-18T22:56:22.670Z,-3.14
2022-12-18T22:58:50.468Z,-3.16
2022-12-18T23:01:22.125Z,-3.17
2022-12-18T23:03:49.639Z,-3.15
2022-12-18T23:06:17.320Z,-3.13
2022-12-18T23:08:45.988Z,-3.13
2022-12-18T23:11:13.686Z,-3.12
2022-12-18T23:13:42.766Z,-3.14
2022-12-18T23:16:11.010Z,-3.21
2022-12-18T23:18:38.473Z,-3.17
2022-12-18T23:21:06.694Z,-3.26
2022-12-18T23:23:35.821Z,-3.25
2022-12-18T23:26:05.746Z,-3.26
2022-12-18T23:28:33.763Z,-3.16
2022-12-18T23:31:06.409Z,-3.21
2022-12-18T23:33:37.688Z,-3.18
2022-12-18T23:36:05.847Z,-3.13
2022-12-18T23:38:34.187Z,-3.19
2022-12-18T23:41:07.392Z,-3.22
2022-12-18T23:43:36.115Z,-3.20
2022-12-18T23:46:03.533Z,-3.09
2022-12-18T23:48:30.977Z,-3.18
2022-12-18T23:50:58.296Z,-3.21
2022-12-18T23:53:25.625Z,-3.23
2022-12-18T23:55:52.959Z,-3.23
2022-12-18T23:58:22.002Z,-3.28
